sensor_id;sensor_type;location;lat;lon;timestamp;pressure;altitude;pressure_sealevel;temperature;humidity
38191;BME280;25191;47.510;19.124;2023-07-29T00:04:31;99879.19;;;24.42;56.67
38191;BME280;25191;47.510;19.124;2023-07-29T00:24:31;99871.84;;;24.36;57.40
38191;BME280;25191;47.510;19.124;2023-07-29T00:44:32;99869.50;;;24.33;57.33
38191;BME280;25191;47.510;19.124;2023-07-29T01:04:32;99868.00;;;24.30;57.36
38191;BME280;25191;47.510;19.124;2023-07-29T01:24:34;99869.50;;;24.33;57.33
38191;BME280;25191;47.510;19.124;2023-07-29T01:44:35;99866.81;;;24.24;57.38
38191;BME280;25191;47.510;19.124;2023-07-29T02:04:36;99867.94;;;24.22;57.39
38191;BME280;25191;47.510;19.124;2023-07-29T02:24:38;99866.41;;;24.19;57.27
38191;BME280;25191;47.510;19.124;2023-07-29T02:44:39;99868.41;;;24.17;56.54
38191;BME280;25191;47.510;19.124;2023-07-29T03:04:40;99876.09;;;24.10;56.05
38191;BME280;25191;47.510;19.124;2023-07-29T03:24:40;99880.84;;;24.07;56.14
38191;BME280;25191;47.510;19.124;2023-07-29T03:44:42;99886.03;;;23.98;56.19
38191;BME280;25191;47.510;19.124;2023-07-29T04:04:43;99895.44;;;23.93;56.56
38191;BME280;25191;47.510;19.124;2023-07-29T04:24:47;99895.59;;;23.81;57.28
38191;BME280;25191;47.510;19.124;2023-07-29T04:44:47;99900.69;;;23.65;57.34
38191;BME280;25191;47.510;19.124;2023-07-29T05:04:48;99885.56;;;23.57;55.18
38191;BME280;25191;47.510;19.124;2023-07-29T05:24:48;99906.78;;;23.65;54.58
38191;BME280;25191;47.510;19.124;2023-07-29T05:44:49;99919.97;;;23.75;53.21
38191;BME280;25191;47.510;19.124;2023-07-29T06:04:49;99948.88;;;23.87;53.31
38191;BME280;25191;47.510;19.124;2023-07-29T06:24:51;99972.09;;;23.93;54.28
38191;BME280;25191;47.510;19.124;2023-07-29T06:44:52;99966.22;;;23.99;54.30
38191;BME280;25191;47.510;19.124;2023-07-29T07:04:52;99966.59;;;24.04;52.40
38191;BME280;25191;47.510;19.124;2023-07-29T07:24:53;99950.41;;;24.17;52.32
38191;BME280;25191;47.510;19.124;2023-07-29T07:44:53;99946.72;;;24.28;53.05
38191;BME280;25191;47.510;19.124;2023-07-29T08:04:54;99930.59;;;24.39;53.22
38191;BME280;25191;47.510;19.124;2023-07-29T08:24:54;99921.75;;;24.49;52.86
38191;BME280;25191;47.510;19.124;2023-07-29T08:44:56;99906.91;;;24.56;54.52
38191;BME280;25191;47.510;19.124;2023-07-29T09:04:56;99909.25;;;24.59;54.11
38191;BME280;25191;47.510;19.124;2023-07-29T09:24:57;99899.19;;;24.62;53.64
38191;BME280;25191;47.510;19.124;2023-07-29T09:44:57;99882.91;;;24.67;53.55
38191;BME280;25191;47.510;19.124;2023-07-29T10:04:58;99871.84;;;24.72;53.33
38191;BME280;25191;47.510;19.124;2023-07-29T10:25:03;99868.72;;;24.76;53.47
38191;BME280;25191;47.510;19.124;2023-07-29T10:45:23;99864.47;;;24.84;53.37
38191;BME280;25191;47.510;19.124;2023-07-29T11:05:24;99851.44;;;24.90;53.12
38191;BME280;25191;47.510;19.124;2023-07-29T11:25:25;99851.63;;;24.97;52.87
38191;BME280;25191;47.510;19.124;2023-07-29T11:45:26;99848.34;;;25.03;52.70
38191;BME280;25191;47.510;19.124;2023-07-29T12:05:27;99831.34;;;25.14;52.83
38191;BME280;25191;47.510;19.124;2023-07-29T12:25:28;99803.25;;;25.21;52.72
38191;BME280;25191;47.510;19.124;2023-07-29T12:45:35;99798.78;;;25.22;52.49
38191;BME280;25191;47.510;19.124;2023-07-29T13:05:36;99784.22;;;25.26;52.46
38191;BME280;25191;47.510;19.124;2023-07-29T13:25:36;99778.78;;;25.36;52.24
38191;BME280;25191;47.510;19.124;2023-07-29T13:45:36;99756.00;;;25.51;52.20
38191;BME280;25191;47.510;19.124;2023-07-29T14:05:37;99729.84;;;25.65;52.31
38191;BME280;25191;47.510;19.124;2023-07-29T14:25:38;99711.75;;;25.77;52.10
38191;BME280;25191;47.510;19.124;2023-07-29T14:45:38;99704.47;;;25.79;52.22
38191;BME280;25191;47.510;19.124;2023-07-29T15:05:38;99709.28;;;25.75;51.94
38191;BME280;25191;47.510;19.124;2023-07-29T15:25:40;99710.28;;;25.74;51.91
38191;BME280;25191;47.510;19.124;2023-07-29T15:45:41;99709.94;;;25.94;49.05
38191;BME280;25191;47.510;19.124;2023-07-29T16:05:41;99722.38;;;25.93;48.09
38191;BME280;25191;47.510;19.124;2023-07-29T16:25:42;99737.44;;;25.93;48.36
38191;BME280;25191;47.510;19.124;2023-07-29T16:45:42;99752.38;;;25.94;48.57
38191;BME280;25191;47.510;19.124;2023-07-29T17:05:45;99774.59;;;25.93;48.91
38191;BME280;25191;47.510;19.124;2023-07-29T17:25:48;99791.84;;;25.88;47.26
38191;BME280;25191;47.510;19.124;2023-07-29T17:45:49;99803.91;;;25.83;49.06
38191;BME280;25191;47.510;19.124;2023-07-29T18:05:50;99794.13;;;25.67;48.65
38191;BME280;25191;47.510;19.124;2023-07-29T18:25:57;99817.63;;;25.53;49.24
38191;BME280;25191;47.510;19.124;2023-07-29T18:45:57;99828.34;;;25.44;50.11
38191;BME280;25191;47.510;19.124;2023-07-29T19:06:00;99820.84;;;25.31;50.52
38191;BME280;25191;47.510;19.124;2023-07-29T19:26:00;99839.03;;;25.25;51.66
38191;BME280;25191;47.510;19.124;2023-07-29T19:46:01;99815.97;;;25.18;51.38
38191;BME280;25191;47.510;19.124;2023-07-29T20:06:05;99774.72;;;24.72;52.34
38191;BME280;25191;47.510;19.124;2023-07-29T20:26:07;99798.03;;;24.51;51.40
38191;BME280;25191;47.510;19.124;2023-07-29T20:46:07;99812.56;;;24.46;50.40
38191;BME280;25191;47.510;19.124;2023-07-29T21:06:11;99835.25;;;24.49;50.38
38191;BME280;25191;47.510;19.124;2023-07-29T21:26:12;99831.34;;;24.35;50.48
38191;BME280;25191;47.510;19.124;2023-07-29T21:46:13;99863.91;;;24.18;51.29
38191;BME280;25191;47.510;19.124;2023-07-29T22:06:13;99871.19;;;23.70;53.06
38191;BME280;25191;47.510;19.124;2023-07-29T22:26:15;99886.13;;;23.61;53.68
38191;BME280;25191;47.510;19.124;2023-07-29T22:46:15;99879.34;;;23.76;53.84
38191;BME280;25191;47.510;19.124;2023-07-29T23:06:17;99891.78;;;23.66;54.14
38191;BME280;25191;47.510;19.124;2023-07-29T23:26:17;99884.50;;;23.50;54.25
38191;BME280;25191;47.510;19.124;2023-07-29T23:46:18;99892.28;;;23.52;54.80
